createdAt,value
2019-03-22T00:01:23.362Z,9.50
2019-03-22T00:03:53.501Z,9.50
2019-03-22T00:06:23.510Z,9.50
2019-03-22T00:08:53.521Z,9.50
2019-03-22T00:11:23.403Z,9.50
2019-03-22T00:13:53.306Z,9.40
2019-03-22T00:16:23.346Z,9.40
2019-03-22T00:18:53.386Z,9.30
2019-03-22T00:21:23.360Z,9.30
2019-03-22T00:23:53.580Z,9.20
2019-03-22T00:26:23.649Z,9.20
2019-03-22T00:28:53.772Z,9.10
2019-03-22T00:31:23.872Z,9.10
2019-03-22T00:33:56.115Z,9.00
2019-03-22T00:36:26.116Z,8.90
2019-03-22T00:38:56.490Z,8.80
2019-03-22T00:41:26.416Z,8.80
2019-03-22T00:43:56.385Z,8.70
2019-03-22T00:46:26.401Z,8.60
2019-03-22T00:48:56.319Z,8.50
2019-03-22T00:51:26.389Z,8.50
2019-03-22T00:53:56.469Z,8.40
2019-03-22T00:56:27.737Z,8.40
2019-03-22T00:58:57.660Z,8.30
2019-03-22T01:01:27.658Z,8.20
2019-03-22T01:03:59.427Z,8.10
2019-03-22T01:06:31.146Z,8.00
2019-03-22T01:09:01.025Z,7.90
2019-03-22T01:11:30.983Z,7.80
2019-03-22T01:14:01.010Z,7.80
2019-03-22T01:16:32.832Z,7.70
2019-03-22T01:19:04.577Z,7.70
2019-03-22T01:21:34.559Z,7.60
2019-03-22T01:24:04.457Z,7.60
2019-03-22T01:26:34.507Z,7.50
2019-03-22T01:29:04.604Z,7.50
2019-03-22T01:31:34.601Z,7.50
2019-03-22T01:34:06.453Z,7.40
2019-03-22T01:36:38.948Z,7.40
2019-03-22T01:39:08.928Z,7.40
2019-03-22T01:41:40.089Z,7.40
2019-03-22T01:44:11.417Z,7.30
2019-03-22T01:47:00.231Z,7.30
2019-03-22T01:49:30.140Z,7.30
2019-03-22T01:52:00.143Z,7.30
2019-03-22T01:54:30.492Z,7.30
2019-03-22T01:57:00.463Z,7.30
2019-03-22T01:59:30.581Z,7.30
2019-03-22T02:02:01.732Z,7.40
2019-03-22T02:04:31.639Z,7.40
2019-03-22T02:07:01.693Z,7.40
2019-03-22T02:09:31.742Z,7.40
2019-03-22T02:12:01.872Z,7.50
2019-03-22T02:14:33.302Z,7.50
2019-03-22T02:17:03.257Z,7.40
2019-03-22T02:19:35.143Z,7.40
2019-03-22T02:22:05.128Z,7.30
2019-03-22T02:24:35.152Z,7.30
2019-03-22T02:27:06.617Z,7.30
2019-03-22T02:29:37.755Z,7.30
2019-03-22T02:32:07.778Z,7.30
2019-03-22T02:34:37.895Z,7.20
2019-03-22T02:37:08.551Z,7.20
2019-03-22T02:39:38.621Z,7.20
2019-03-22T02:42:08.707Z,7.20
2019-03-22T02:44:40.881Z,7.20
2019-03-22T02:47:10.751Z,7.10
2019-03-22T02:49:40.738Z,7.10
2019-03-22T02:52:13.627Z,7.10
2019-03-22T02:54:44.867Z,7.10
2019-03-22T02:57:14.825Z,7.00
2019-03-22T02:59:44.989Z,7.00
2019-03-22T03:02:15.078Z,7.00
2019-03-22T03:04:45.045Z,7.00
2019-03-22T03:07:15.147Z,7.00
2019-03-22T03:09:45.147Z,6.90
2019-03-22T03:12:15.126Z,6.90
2019-03-22T03:14:45.158Z,6.90
2019-03-22T03:17:17.851Z,6.90
2019-03-22T03:19:47.899Z,6.90
2019-03-22T03:22:17.908Z,6.80
2019-03-22T03:24:47.860Z,6.90
2019-03-22T03:27:17.835Z,6.80
2019-03-22T03:29:47.974Z,6.80
2019-03-22T03:32:18.081Z,6.80
2019-03-22T03:34:48.091Z,6.80
2019-03-22T03:37:18.064Z,6.80
2019-03-22T03:39:48.494Z,6.80
2019-03-22T03:42:20.599Z,6.80
2019-03-22T03:44:50.552Z,6.80
2019-03-22T03:47:20.477Z,6.90
2019-03-22T03:49:50.533Z,6.80
2019-03-22T03:52:21.896Z,6.80
2019-03-22T03:54:51.982Z,6.80
2019-03-22T03:57:21.942Z,6.70
2019-03-22T03:59:51.888Z,6.70
2019-03-22T04:02:21.827Z,6.70
2019-03-22T04:04:51.857Z,6.70
2019-03-22T04:07:21.760Z,6.60
2019-03-22T04:09:51.763Z,6.60
2019-03-22T04:12:21.746Z,6.60
2019-03-22T04:14:51.782Z,6.60
2019-03-22T04:17:23.703Z,6.50
2019-03-22T04:19:54.139Z,6.50
2019-03-22T04:22:24.240Z,6.50
2019-03-22T04:24:54.338Z,6.50
2019-03-22T04:27:24.383Z,6.50
2019-03-22T04:29:54.442Z,6.50
2019-03-22T04:32:26.235Z,6.60
2019-03-22T04:34:56.606Z,6.50
2019-03-22T04:37:26.596Z,6.60
2019-03-22T04:39:56.726Z,6.50
2019-03-22T04:42:26.985Z,6.40
2019-03-22T04:44:57.015Z,6.40
2019-03-22T04:47:27.208Z,6.40
2019-03-22T04:49:58.810Z,6.40
2019-03-22T04:52:29.073Z,6.40
2019-03-22T04:55:01.159Z,6.40
2019-03-22T04:57:51.474Z,6.40
2019-03-22T05:00:41.959Z,6.40
2019-03-22T05:03:13.573Z,6.40
2019-03-22T05:05:45.175Z,6.40
2019-03-22T05:08:35.433Z,6.30
2019-03-22T05:11:07.227Z,6.20
2019-03-22T05:13:39.644Z,6.10
2019-03-22T05:16:13.160Z,6.00
2019-03-22T05:18:46.640Z,5.90
2019-03-22T05:21:17.608Z,5.80
2019-03-22T05:23:49.395Z,5.80
2019-03-22T05:26:20.573Z,5.70
2019-03-22T05:28:51.696Z,5.70
2019-03-22T05:31:56.677Z,5.60
2019-03-22T05:34:28.386Z,5.60
2019-03-22T05:36:58.384Z,5.50
2019-03-22T05:39:28.352Z,5.50
2019-03-22T05:41:58.301Z,5.40
2019-03-22T05:44:28.357Z,5.40
2019-03-22T05:47:00.261Z,5.40
2019-03-22T05:49:30.262Z,5.40
2019-03-22T05:52:00.332Z,5.50
2019-03-22T05:54:32.131Z,5.50
2019-03-22T05:57:12.849Z,5.50
2019-03-22T05:59:42.395Z,5.60
2019-03-22T06:02:07.316Z,5.70
2019-03-22T06:04:37.232Z,5.70
2019-03-22T06:07:08.968Z,5.80
2019-03-22T06:09:57.708Z,5.80
2019-03-22T06:12:27.840Z,5.80
2019-03-22T06:14:57.760Z,5.90
2019-03-22T06:17:27.707Z,5.90
2019-03-22T06:19:57.658Z,5.90
2019-03-22T06:22:28.011Z,5.90
2019-03-22T06:24:57.983Z,5.90
2019-03-22T06:27:28.272Z,5.90
2019-03-22T06:29:58.188Z,6.00
2019-03-22T06:32:28.152Z,6.10
2019-03-22T06:34:58.109Z,6.10
2019-03-22T06:37:46.979Z,6.20
2019-03-22T06:40:17.140Z,6.30
2019-03-22T06:42:47.126Z,6.40
2019-03-22T06:45:17.493Z,6.40
2019-03-22T06:47:47.692Z,6.50
2019-03-22T06:50:17.729Z,6.60
2019-03-22T06:52:47.856Z,6.70
2019-03-22T06:55:17.896Z,6.70
2019-03-22T06:57:47.834Z,6.80
2019-03-22T07:00:17.768Z,7.00
2019-03-22T07:02:48.012Z,7.20
2019-03-22T07:05:17.949Z,7.30
2019-03-22T07:07:49.382Z,7.40
2019-03-22T07:10:19.367Z,7.60
2019-03-22T07:12:49.270Z,7.70
2019-03-22T07:15:19.237Z,7.80
2019-03-22T07:17:49.309Z,7.90
2019-03-22T07:20:19.303Z,8.10
2019-03-22T07:22:49.218Z,8.20
2019-03-22T07:25:19.339Z,8.40
2019-03-22T07:27:49.309Z,8.50
2019-03-22T07:30:20.327Z,8.70
2019-03-22T07:32:50.553Z,8.80
2019-03-22T07:35:20.469Z,9.00
2019-03-22T07:37:52.203Z,9.00
2019-03-22T07:40:22.169Z,9.10
2019-03-22T07:42:52.402Z,9.30
2019-03-22T07:45:22.430Z,9.30
2019-03-22T11:51:40.204Z,18.40
2019-03-22T11:54:10.350Z,17.10
2019-03-22T11:56:40.318Z,16.50
2019-03-22T11:59:11.844Z,16.20
2019-03-22T12:01:41.735Z,15.90
2019-03-22T12:04:11.986Z,15.80
2019-03-22T12:06:42.278Z,15.70
2019-03-22T12:09:12.165Z,15.60
2019-03-22T12:11:42.297Z,15.50
2019-03-22T12:14:12.326Z,15.40
2019-03-22T12:16:42.303Z,15.40
2019-03-22T12:19:13.723Z,15.30
2019-03-22T12:21:43.777Z,15.20
2019-03-22T12:24:15.051Z,15.20
2019-03-22T12:26:46.410Z,15.20
2019-03-22T12:29:17.578Z,15.10
2019-03-22T12:31:47.484Z,15.10
2019-03-22T12:34:17.532Z,15.00
2019-03-22T12:36:47.802Z,15.00
2019-03-22T12:39:17.699Z,15.00
2019-03-22T12:41:47.592Z,14.90
2019-03-22T12:44:17.690Z,14.90
2019-03-22T12:46:49.175Z,14.80
2019-03-22T12:49:21.152Z,14.80
2019-03-22T12:51:51.514Z,14.80
2019-03-22T12:54:23.487Z,14.80
2019-03-22T12:56:53.492Z,14.80
2019-03-22T12:59:25.284Z,14.80
2019-03-22T13:01:55.261Z,14.80
2019-03-22T13:04:26.390Z,14.80
2019-03-22T13:06:56.402Z,14.70
2019-03-22T13:09:28.156Z,14.70
2019-03-22T13:11:58.244Z,14.70
2019-03-22T13:14:28.233Z,14.70
2019-03-22T13:16:58.201Z,14.60
